Time;durP1;ratioP1;P1;durP2;ratioP2;P2;SDS_P1;SDS_P2;PMS_P1;PMS_P2;Temp;Humidity;BMP_temperature;BMP_pressure;BME280_temperature;BME280_humidity;BME280_pressure;Samples;Min_cycle;Max_cycle;Signal;HPM_P1;HPM_P2
2024/01/12 00:02:24;;;;;;;36.80;26.20;;;0.20;99.90;;;;;;5013146;28;20479;-76
2024/01/12 00:04:53;;;;;;;37.57;26.20;;;0.20;99.90;;;;;;5012980;28;20446;-76
2024/01/12 00:07:22;;;;;;;34.10;24.33;;;0.20;99.90;;;;;;5012938;28;20456;-75
2024/01/12 00:09:51;;;;;;;40.53;24.40;;;0.20;99.90;;;;;;5012824;28;20835;-76
2024/01/12 00:12:19;;;;;;;41.53;27.60;;;0.20;99.90;;;;;;5014089;28;20531;-75
2024/01/12 00:14:47;;;;;;;40.80;26.70;;;0.30;99.90;;;;;;5012898;28;21061;-76
2024/01/12 00:17:18;;;;;;;44.10;26.60;;;0.30;99.90;;;;;;5012853;28;20450;-76
2024/01/12 00:19:47;;;;;;;36.23;25.23;;;0.30;99.90;;;;;;5014222;28;20548;-75
2024/01/12 00:22:15;;;;;;;41.83;27.13;;;0.30;99.90;;;;;;5012724;28;21071;-77
2024/01/12 00:24:45;;;;;;;40.73;27.33;;;0.30;99.90;;;;;;5012768;28;20452;-76
2024/01/12 00:27:13;;;;;;;31.63;24.23;;;0.30;99.90;;;;;;5012742;28;20463;-75
2024/01/12 00:29:41;;;;;;;38.37;27.07;;;0.30;99.90;;;;;;5012565;28;20480;-75
2024/01/12 00:32:11;;;;;;;38.27;26.10;;;0.30;99.90;;;;;;5013904;28;20799;-77
2024/01/12 00:34:40;;;;;;;46.60;29.67;;;0.30;99.90;;;;;;5014370;28;20417;-77
2024/01/12 00:37:08;;;;;;;45.70;27.43;;;0.40;99.90;;;;;;5012867;28;20868;-77
2024/01/12 00:39:37;;;;;;;44.20;28.50;;;0.40;99.90;;;;;;5012508;28;20452;-77
2024/01/12 00:42:07;;;;;;;46.17;28.47;;;0.40;99.90;;;;;;5012501;28;20474;-77
2024/01/12 00:44:35;;;;;;;39.00;26.10;;;0.40;99.90;;;;;;5012528;28;20512;-77
2024/01/12 00:47:04;;;;;;;39.50;25.60;;;0.40;99.90;;;;;;5012624;28;20448;-77
2024/01/12 00:49:32;;;;;;;37.40;25.83;;;0.40;99.90;;;;;;5012526;28;20452;-77
2024/01/12 00:52:00;;;;;;;43.43;26.90;;;0.40;99.90;;;;;;5012604;28;20446;-77
2024/01/12 00:54:29;;;;;;;36.80;23.50;;;0.40;99.90;;;;;;5012815;28;20815;-78
2024/01/12 00:56:57;;;;;;;47.87;27.77;;;0.40;99.90;;;;;;5013786;28;20443;-77
2024/01/12 00:59:27;;;;;;;56.80;31.23;;;0.40;99.90;;;;;;5012252;28;20446;-77
2024/01/12 01:01:57;;;;;;;43.17;25.57;;;0.40;99.90;;;;;;5013867;28;20566;-77
2024/01/12 01:04:26;;;;;;;37.87;25.87;;;0.40;99.90;;;;;;5014049;28;20431;-75
2024/01/12 01:06:55;;;;;;;46.47;29.90;;;0.40;99.90;;;;;;5012340;28;20452;-75
2024/01/12 01:09:23;;;;;;;49.43;28.70;;;0.50;99.90;;;;;;5013487;28;20436;-75
2024/01/12 01:11:53;;;;;;;49.83;29.63;;;0.50;99.90;;;;;;5012158;28;20487;-75
2024/01/12 01:14:24;;;;;;;39.10;26.20;;;0.50;99.90;;;;;;5013372;28;20436;-75
2024/01/12 01:16:55;;;;;;;44.90;28.53;;;0.50;99.90;;;;;;5012245;28;20465;-75
2024/01/12 01:19:23;;;;;;;50.97;28.23;;;0.50;99.90;;;;;;5013630;28;20779;-75
2024/01/12 01:21:52;;;;;;;43.00;29.17;;;0.50;99.90;;;;;;5013769;28;20531;-76
2024/01/12 01:24:20;;;;;;;40.90;27.73;;;0.50;99.90;;;;;;5017391;28;20467;-76
2024/01/12 01:26:48;;;;;;;46.53;27.80;;;0.50;99.90;;;;;;5016081;28;20462;-76
2024/01/12 01:29:16;;;;;;;52.83;28.03;;;0.50;99.90;;;;;;5015930;28;20956;-76
2024/01/12 01:31:45;;;;;;;56.37;29.80;;;0.50;99.90;;;;;;5016006;28;20976;-76
2024/01/12 01:34:14;;;;;;;57.90;28.50;;;0.50;99.90;;;;;;5017536;28;20937;-76
2024/01/12 01:36:43;;;;;;;49.53;30.33;;;0.60;99.90;;;;;;5017406;28;20452;-77
2024/01/12 01:39:11;;;;;;;50.27;28.97;;;0.60;99.90;;;;;;5017477;28;20500;-76
2024/01/12 01:41:39;;;;;;;48.80;26.23;;;0.60;99.90;;;;;;5015756;28;20483;-76
2024/01/12 01:44:08;;;;;;;56.17;30.80;;;0.60;99.90;;;;;;5016112;28;20492;-76
2024/01/12 01:46:37;;;;;;;41.13;27.47;;;0.60;99.90;;;;;;5017026;28;20451;-76
2024/01/12 01:49:05;;;;;;;54.87;29.00;;;0.60;99.90;;;;;;5015750;28;20948;-77
2024/01/12 01:51:35;;;;;;;47.00;26.93;;;0.60;99.90;;;;;;5016886;28;20957;-76
2024/01/12 01:54:03;;;;;;;52.80;32.07;;;0.60;99.90;;;;;;5015618;28;20934;-76
2024/01/12 01:56:33;;;;;;;59.53;29.20;;;0.70;99.90;;;;;;5017163;28;20451;-76
2024/01/12 01:59:01;;;;;;;64.10;28.07;;;0.70;99.90;;;;;;5016911;28;20931;-76
2024/01/12 02:01:30;;;;;;;53.73;30.43;;;0.70;99.90;;;;;;5016708;28;20568;-76
2024/01/12 02:04:00;;;;;;;50.73;31.40;;;0.70;99.90;;;;;;5017097;28;20927;-77
2024/01/12 02:06:28;;;;;;;61.73;32.50;;;0.70;99.90;;;;;;5015437;28;20464;-77
2024/01/12 02:08:58;;;;;;;72.87;30.67;;;0.70;99.90;;;;;;5015486;28;20475;-77
2024/01/12 02:11:26;;;;;;;58.10;30.73;;;0.70;99.90;;;;;;5015314;28;20550;-77
2024/01/12 02:13:55;;;;;;;57.17;28.70;;;0.80;99.90;;;;;;5015382;28;20452;-76
2024/01/12 02:16:23;;;;;;;52.53;29.03;;;0.80;99.90;;;;;;5015317;28;20466;-76
2024/01/12 02:18:51;;;;;;;48.63;29.70;;;0.80;99.90;;;;;;5015339;28;20446;-76
2024/01/12 02:21:21;;;;;;;54.30;31.13;;;0.80;99.90;;;;;;5015192;28;20478;-77
2024/01/12 02:23:49;;;;;;;54.33;30.53;;;0.80;99.90;;;;;;5015223;28;20993;-77
2024/01/12 02:26:18;;;;;;;72.03;30.07;;;0.80;99.90;;;;;;5016464;28;20441;-77
2024/01/12 02:28:47;;;;;;;49.50;29.27;;;0.70;99.90;;;;;;5015023;28;20906;-76
2024/01/12 02:31:16;;;;;;;51.73;28.77;;;0.80;99.90;;;;;;5014941;28;20476;-77
2024/01/12 02:33:47;;;;;;;78.03;30.87;;;0.80;99.90;;;;;;5015052;28;20944;-76
2024/01/12 02:36:16;;;;;;;49.03;28.57;;;0.80;99.90;;;;;;5015064;28;20602;-77
2024/01/12 02:38:50;;;;;;;86.90;29.50;;;0.80;99.90;;;;;;5014914;28;20856;-77
2024/01/12 02:41:18;;;;;;;49.30;28.37;;;0.80;99.90;;;;;;5014831;28;20473;-77
2024/01/12 02:43:47;;;;;;;75.90;28.20;;;0.80;99.90;;;;;;5014715;28;20843;-77
2024/01/12 02:46:16;;;;;;;66.73;29.20;;;0.80;99.90;;;;;;5014742;28;20543;-77
2024/01/12 02:48:44;;;;;;;51.30;24.77;;;0.80;99.90;;;;;;5014808;28;20465;-77
2024/01/12 02:51:12;;;;;;;69.10;27.03;;;0.70;99.90;;;;;;5014699;28;20911;-76
2024/01/12 02:53:41;;;;;;;66.33;24.43;;;0.80;99.90;;;;;;5014646;28;20500;-77
2024/01/12 02:56:11;;;;;;;40.90;22.70;;;0.80;99.90;;;;;;5014678;28;20535;-77
2024/01/12 02:58:40;;;;;;;53.30;24.30;;;0.80;99.90;;;;;;5014558;28;20449;-77
2024/01/12 03:01:08;;;;;;;60.20;23.83;;;0.80;99.90;;;;;;5015720;28;20473;-77
2024/01/12 03:03:37;;;;;;;44.20;21.00;;;0.80;99.90;;;;;;5014565;28;20471;-77
2024/01/12 03:06:07;;;;;;;45.33;20.80;;;0.80;99.90;;;;;;5015802;28;20490;-77
2024/01/12 03:08:35;;;;;;;39.03;19.63;;;0.80;99.90;;;;;;5015169;28;20445;-77
2024/01/12 03:11:04;;;;;;;35.90;18.97;;;0.80;99.90;;;;;;5014458;28;20556;-77
2024/01/12 03:13:35;;;;;;;40.23;19.37;;;0.80;99.90;;;;;;5016074;28;20439;-77
2024/01/12 03:16:04;;;;;;;28.73;17.97;;;0.80;99.90;;;;;;5014426;28;20545;-77
2024/01/12 03:18:33;;;;;;;39.37;19.43;;;0.80;99.90;;;;;;5015548;28;20799;-77
2024/01/12 03:21:01;;;;;;;37.63;18.60;;;0.80;99.90;;;;;;5014391;28;20463;-77
2024/01/12 03:23:30;;;;;;;29.10;16.17;;;0.80;99.90;;;;;;5014448;28;20523;-77
2024/01/12 03:25:59;;;;;;;39.17;19.30;;;0.80;99.90;;;;;;5014199;28;20458;-77
2024/01/12 03:28:28;;;;;;;35.90;17.97;;;0.80;99.90;;;;;;5013948;28;20452;-77
2024/01/12 03:30:57;;;;;;;47.33;18.00;;;0.80;99.90;;;;;;5013977;28;20535;-77
2024/01/12 03:33:25;;;;;;;31.57;17.50;;;0.80;99.90;;;;;;5015288;28;20436;-76
2024/01/12 03:35:54;;;;;;;34.67;16.67;;;0.80;99.90;;;;;;5015344;28;20442;-77
2024/01/12 03:38:22;;;;;;;33.23;17.60;;;0.80;99.90;;;;;;5013996;28;20464;-77
2024/01/12 03:40:50;;;;;;;30.97;18.20;;;0.80;99.90;;;;;;5013817;28;20474;-76
2024/01/12 03:43:19;;;;;;;30.67;17.73;;;0.80;99.90;;;;;;5013625;28;20469;-77
2024/01/12 03:45:47;;;;;;;32.23;18.80;;;0.80;99.90;;;;;;5014715;28;21045;-77
2024/01/12 03:48:17;;;;;;;31.27;18.47;;;0.70;99.90;;;;;;5013639;28;20508;-77
2024/01/12 03:50:46;;;;;;;33.37;18.90;;;0.70;99.90;;;;;;5014763;28;20460;-77
2024/01/12 03:53:15;;;;;;;39.23;20.23;;;0.80;99.90;;;;;;5013562;28;20954;-77
2024/01/12 03:55:43;;;;;;;34.27;21.90;;;0.70;99.90;;;;;;5013745;28;20457;-77
2024/01/12 03:58:11;;;;;;;28.67;20.63;;;0.70;99.90;;;;;;5013529;28;20896;-77
2024/01/12 04:00:40;;;;;;;40.63;22.40;;;0.70;99.90;;;;;;5013384;28;20475;-77
2024/01/12 04:03:08;;;;;;;32.13;20.10;;;0.70;99.90;;;;;;5013380;28;20983;-77
2024/01/12 04:05:38;;;;;;;42.43;23.10;;;0.70;99.90;;;;;;5013409;28;20456;-77
2024/01/12 04:08:06;;;;;;;33.47;23.20;;;0.80;99.90;;;;;;5014564;28;20447;-77
2024/01/12 04:10:34;;;;;;;34.97;21.70;;;0.70;99.90;;;;;;5013259;28;20818;-77
2024/01/12 04:13:03;;;;;;;37.17;24.00;;;0.80;99.90;;;;;;5014526;28;20442;-76
2024/01/12 04:15:32;;;;;;;41.93;23.93;;;0.70;99.90;;;;;;5013210;28;20541;-77
2024/01/12 04:18:00;;;;;;;36.07;22.73;;;0.80;99.90;;;;;;5013170;28;20457;-77
2024/01/12 04:20:28;;;;;;;37.00;23.30;;;0.70;99.90;;;;;;5013019;28;20554;-76
2024/01/12 04:22:58;;;;;;;35.83;22.70;;;0.70;99.90;;;;;;5012924;28;20473;-77
2024/01/12 04:25:26;;;;;;;35.93;21.77;;;0.70;99.90;;;;;;5012936;28;21012;-77
2024/01/12 04:27:55;;;;;;;39.40;25.20;;;0.70;99.90;;;;;;5013014;28;20507;-77
2024/01/12 04:30:23;;;;;;;34.53;23.90;;;0.70;99.90;;;;;;5012750;28;20487;-76
2024/01/12 04:32:51;;;;;;;37.57;23.87;;;0.70;99.90;;;;;;5014100;28;20438;-76
2024/01/12 04:35:20;;;;;;;49.17;26.53;;;0.70;99.90;;;;;;5014096;28;20447;-77
2024/01/12 04:37:48;;;;;;;45.40;25.73;;;0.70;99.90;;;;;;5012697;28;20458;-77
2024/01/12 04:40:18;;;;;;;41.60;25.97;;;0.70;99.90;;;;;;5012677;28;20509;-76
2024/01/12 04:42:46;;;;;;;38.53;25.53;;;0.70;99.90;;;;;;5012690;28;20510;-77
2024/01/12 04:45:14;;;;;;;42.13;27.03;;;0.70;99.90;;;;;;5012672;28;20479;-77
2024/01/12 04:47:42;;;;;;;47.03;29.00;;;0.70;99.90;;;;;;5013766;28;20986;-76
2024/01/12 04:50:11;;;;;;;48.10;29.77;;;0.70;99.90;;;;;;5014053;28;20467;-76
2024/01/12 04:52:39;;;;;;;46.73;28.67;;;0.70;99.90;;;;;;5012546;28;20531;-76
2024/01/12 04:55:08;;;;;;;44.77;28.10;;;0.70;99.90;;;;;;5012484;28;20874;-77
2024/01/12 04:57:38;;;;;;;38.03;25.00;;;0.70;99.90;;;;;;5011883;28;20500;-76
2024/01/12 05:00:08;;;;;;;43.73;25.50;;;0.70;99.90;;;;;;5012379;28;20496;-76
2024/01/12 05:02:36;;;;;;;39.90;25.80;;;0.70;99.90;;;;;;5012390;28;20549;-76
2024/01/12 05:05:08;;;;;;;39.90;25.57;;;0.70;99.90;;;;;;5013647;28;20470;-77
2024/01/12 05:07:36;;;;;;;37.23;21.60;;;0.70;99.90;;;;;;5012559;28;20834;-77
2024/01/12 05:10:06;;;;;;;37.43;21.83;;;0.70;99.90;;;;;;5012403;28;20503;-76
2024/01/12 05:12:35;;;;;;;37.57;21.07;;;0.70;99.90;;;;;;5013663;28;20421;-76
2024/01/12 05:15:06;;;;;;;31.70;20.70;;;0.60;99.90;;;;;;5012303;28;20445;-76
2024/01/12 05:17:34;;;;;;;33.70;19.30;;;0.70;99.90;;;;;;5013533;28;20436;-76
2024/01/12 05:20:06;;;;;;;42.03;20.70;;;0.60;99.90;;;;;;5013505;28;20458;-77
2024/01/12 05:22:36;;;;;;;31.57;18.50;;;0.60;99.90;;;;;;5013395;28;20894;-76
2024/01/12 05:25:05;;;;;;;38.43;21.00;;;0.60;99.90;;;;;;5012230;28;20477;-76
2024/01/12 05:27:33;;;;;;;28.63;19.20;;;0.60;99.90;;;;;;5012252;28;20451;-77
2024/01/12 05:30:01;;;;;;;29.97;19.60;;;0.60;99.90;;;;;;5012030;28;20554;-77
2024/01/12 05:32:33;;;;;;;36.67;18.90;;;0.60;99.90;;;;;;5012172;28;20448;-77
2024/01/12 05:35:02;;;;;;;33.00;19.53;;;0.60;99.90;;;;;;5012156;28;20506;-77
2024/01/12 05:37:30;;;;;;;41.60;19.50;;;0.60;99.90;;;;;;5012208;28;20447;-77
2024/01/12 05:39:58;;;;;;;30.33;18.17;;;0.60;99.90;;;;;;5012016;28;20492;-77
2024/01/12 05:42:26;;;;;;;28.20;17.20;;;0.60;99.90;;;;;;5012249;28;20444;-77
2024/01/12 05:44:54;;;;;;;33.07;17.20;;;0.60;99.90;;;;;;5012385;28;20494;-76
2024/01/12 05:47:23;;;;;;;35.40;18.60;;;0.60;99.90;;;;;;5012030;28;20454;-77
2024/01/12 05:49:53;;;;;;;27.13;16.73;;;0.60;99.90;;;;;;5013308;28;20868;-76
2024/01/12 05:52:21;;;;;;;28.70;17.63;;;0.60;99.90;;;;;;5012199;28;20457;-76
2024/01/12 05:54:51;;;;;;;30.33;17.90;;;0.60;99.90;;;;;;5011961;28;20454;-76
2024/01/12 05:57:19;;;;;;;34.33;18.77;;;0.60;99.90;;;;;;5012094;28;20821;-77
2024/01/12 05:59:47;;;;;;;31.83;19.47;;;0.60;99.90;;;;;;5011889;28;20478;-77
2024/01/12 06:02:15;;;;;;;33.43;17.30;;;0.60;99.90;;;;;;5012021;28;20445;-76
2024/01/12 06:04:44;;;;;;;33.37;17.93;;;0.70;99.90;;;;;;5012053;28;20470;-77
2024/01/12 06:07:15;;;;;;;31.87;18.60;;;0.70;99.90;;;;;;5012542;28;20449;-77
2024/01/12 06:09:43;;;;;;;35.92;17.48;;;0.70;99.90;;;;;;5015719;28;20463;-76
2024/01/12 06:12:11;;;;;;;33.50;18.37;;;0.70;99.90;;;;;;5015599;28;20913;-77
2024/01/12 06:14:40;;;;;;;29.40;16.53;;;0.80;99.90;;;;;;5017212;28;20781;-76
2024/01/12 06:17:08;;;;;;;42.53;18.53;;;0.80;99.90;;;;;;5015639;28;20446;-77
2024/01/12 06:19:37;;;;;;;32.47;16.40;;;0.80;99.90;;;;;;5015568;28;20456;-77
2024/01/12 06:22:05;;;;;;;30.10;16.80;;;0.80;99.90;;;;;;5015369;28;20474;-77
2024/01/12 06:24:35;;;;;;;28.10;15.97;;;0.80;99.90;;;;;;5015233;28;20532;-77
2024/01/12 06:27:03;;;;;;;26.17;16.03;;;0.80;99.90;;;;;;5015409;28;20449;-77
2024/01/12 06:29:34;;;;;;;36.50;18.27;;;0.80;99.90;;;;;;5015135;28;20456;-77
2024/01/12 06:32:03;;;;;;;31.97;18.10;;;0.80;99.90;;;;;;5016945;28;20445;-77
2024/01/12 06:34:31;;;;;;;38.50;18.40;;;0.80;99.90;;;;;;5016448;28;20549;-78
2024/01/12 06:36:59;;;;;;;36.83;19.33;;;0.90;99.90;;;;;;5018326;28;20479;-78
2024/01/12 06:39:27;;;;;;;39.67;20.70;;;0.90;99.90;;;;;;5018433;28;21007;-79
2024/01/12 06:41:58;;;;;;;35.23;17.93;;;0.90;99.90;;;;;;5018134;28;20477;-78
2024/01/12 06:44:27;;;;;;;38.30;20.63;;;1.00;99.90;;;;;;5019383;28;20462;-78
2024/01/12 06:46:57;;;;;;;39.47;21.33;;;0.90;99.90;;;;;;5018838;28;20438;-78
2024/01/12 06:49:25;;;;;;;37.40;22.70;;;0.90;99.90;;;;;;5017204;28;20473;-78
2024/01/12 06:51:54;;;;;;;38.00;22.07;;;1.00;99.90;;;;;;5017357;28;20452;-78
2024/01/12 06:54:23;;;;;;;45.77;27.40;;;1.00;99.90;;;;;;5015916;28;20458;-78
2024/01/12 06:56:52;;;;;;;39.53;23.63;;;1.00;99.90;;;;;;5015770;28;20458;-78
2024/01/12 06:59:23;;;;;;;49.10;25.70;;;1.00;99.90;;;;;;5015348;28;20448;-77
2024/01/12 07:01:51;;;;;;;54.87;27.47;;;1.00;99.90;;;;;;5015558;28;20957;-78
2024/01/12 07:04:19;;;;;;;42.83;24.23;;;1.00;99.90;;;;;;5015902;28;20526;-78
2024/01/12 07:06:48;;;;;;;44.70;25.87;;;1.10;99.90;;;;;;5016666;28;20460;-78
2024/01/12 07:09:16;;;;;;;48.03;25.93;;;1.10;99.90;;;;;;5017183;28;21006;-78
2024/01/12 07:11:48;;;;;;;50.67;26.63;;;1.10;99.90;;;;;;5018200;28;20466;-78
2024/01/12 07:14:17;;;;;;;51.97;25.23;;;1.10;99.90;;;;;;5016889;28;20930;-78
2024/01/12 07:16:47;;;;;;;49.00;26.60;;;1.10;99.90;;;;;;5016710;28;20891;-78
2024/01/12 07:19:15;;;;;;;43.90;25.80;;;1.10;99.90;;;;;;5017857;28;20460;-78
2024/01/12 07:21:44;;;;;;;43.33;25.77;;;1.10;99.90;;;;;;5016273;28;20493;-78
2024/01/12 07:24:12;;;;;;;43.53;24.27;;;1.10;99.90;;;;;;5018194;28;20443;-79
2024/01/12 07:26:41;;;;;;;41.57;24.00;;;1.10;99.90;;;;;;5016349;28;20917;-79
2024/01/12 07:29:09;;;;;;;46.10;25.43;;;1.10;99.90;;;;;;5016034;28;20458;-79
2024/01/12 07:31:37;;;;;;;48.77;26.10;;;1.20;99.90;;;;;;5016506;28;20496;-79
2024/01/12 07:34:10;;;;;;;41.90;23.27;;;1.20;99.90;;;;;;5016303;28;20967;-78
2024/01/12 07:36:39;;;;;;;40.57;24.47;;;1.20;99.90;;;;;;5016298;28;20548;-78
2024/01/12 07:39:08;;;;;;;40.23;24.40;;;1.20;99.90;;;;;;5016056;28;20448;-78
2024/01/12 07:41:36;;;;;;;44.47;23.20;;;1.20;99.90;;;;;;5016863;28;20560;-79
2024/01/12 07:44:07;;;;;;;34.93;21.50;;;1.20;99.90;;;;;;5017574;28;20857;-79
2024/01/12 07:46:36;;;;;;;37.20;22.70;;;1.20;99.90;;;;;;5017469;28;20471;-79
2024/01/12 07:49:05;;;;;;;38.43;21.83;;;1.20;99.90;;;;;;5017202;28;20454;-78
2024/01/12 07:51:36;;;;;;;45.00;22.20;;;1.20;99.90;;;;;;5016683;28;21010;-78
2024/01/12 07:54:04;;;;;;;35.80;22.00;;;1.20;99.90;;;;;;5017064;28;20447;-78
2024/01/12 07:56:35;;;;;;;37.27;20.83;;;1.20;99.90;;;;;;5017653;28;20476;-78
2024/01/12 07:59:04;;;;;;;40.73;22.60;;;1.30;99.90;;;;;;5017887;28;20985;-79
2024/01/12 08:01:32;;;;;;;34.57;19.90;;;1.30;99.90;;;;;;5016046;28;20465;-79
2024/01/12 08:04:01;;;;;;;35.53;21.00;;;1.30;99.90;;;;;;5016374;28;20549;-78
2024/01/12 08:06:30;;;;;;;37.07;21.03;;;1.30;99.90;;;;;;5016089;28;20894;-78
2024/01/12 08:08:59;;;;;;;35.23;21.03;;;1.30;99.90;;;;;;5016079;28;20451;-78
2024/01/12 08:11:28;;;;;;;34.53;21.20;;;1.30;99.90;;;;;;5017409;28;20490;-78
2024/01/12 08:14:07;;;;;;;38.53;22.10;;;1.40;99.90;;;;;;5015997;28;20442;-79
2024/01/12 08:16:35;;;;;;;32.53;20.40;;;1.40;99.90;;;;;;5017612;28;20516;-78
2024/01/12 08:19:04;;;;;;;29.90;19.57;;;1.40;99.90;;;;;;5017704;28;20932;-78
2024/01/12 08:21:32;;;;;;;33.37;19.30;;;1.40;99.90;;;;;;5016578;28;20462;-79
2024/01/12 08:24:17;;;;;;;33.53;20.40;;;1.40;99.90;;;;;;5017060;28;20455;-79
2024/01/12 08:26:46;;;;;;;35.37;18.73;;;1.50;99.90;;;;;;5016755;28;20504;-79
2024/01/12 08:29:14;;;;;;;31.17;20.30;;;1.40;99.90;;;;;;5016000;28;20490;-79
2024/01/12 08:31:43;;;;;;;33.63;19.60;;;1.50;99.90;;;;;;5014019;28;20528;-79
2024/01/12 08:34:11;;;;;;;32.40;19.47;;;1.50;99.90;;;;;;5014933;28;20593;-79
2024/01/12 08:36:40;;;;;;;32.17;19.93;;;1.60;99.90;;;;;;5015267;28;20462;-79
2024/01/12 08:39:08;;;;;;;32.00;20.03;;;1.50;99.90;;;;;;5016886;28;20459;-79
2024/01/12 08:41:38;;;;;;;33.73;20.57;;;1.50;99.90;;;;;;5015647;28;20512;-80
2024/01/12 08:44:07;;;;;;;39.07;21.57;;;1.60;99.90;;;;;;5014857;28;20458;-79
2024/01/12 08:46:35;;;;;;;43.67;22.90;;;1.60;99.90;;;;;;5014486;28;21060;-79
2024/01/12 08:49:03;;;;;;;46.93;25.30;;;1.60;99.90;;;;;;5014885;28;20479;-79
2024/01/12 08:51:32;;;;;;;42.37;24.63;;;1.70;99.90;;;;;;5016295;28;20529;-80
2024/01/12 08:54:01;;;;;;;56.63;26.90;;;1.70;99.90;;;;;;5015097;28;20458;-79
2024/01/12 08:56:29;;;;;;;62.90;32.77;;;1.70;99.90;;;;;;5014596;28;20452;-78
2024/01/12 08:59:00;;;;;;;72.93;33.77;;;1.70;99.90;;;;;;5014538;28;20454;-79
2024/01/12 09:01:28;;;;;;;88.47;36.50;;;1.70;99.90;;;;;;5013647;28;21067;-78
2024/01/12 09:03:56;;;;;;;90.73;41.10;;;1.70;99.90;;;;;;5013885;28;20841;-79
2024/01/12 09:06:27;;;;;;;94.80;41.73;;;1.80;99.90;;;;;;5013482;28;20467;-78
2024/01/12 09:08:56;;;;;;;93.07;41.63;;;1.80;99.90;;;;;;5013905;28;20504;-79
2024/01/12 09:11:25;;;;;;;82.87;39.10;;;1.80;99.90;;;;;;5013610;28;20512;-78
2024/01/12 09:13:53;;;;;;;97.57;44.03;;;1.80;99.90;;;;;;5014783;28;20469;-78
2024/01/12 09:16:23;;;;;;;98.27;41.43;;;1.80;99.90;;;;;;5013989;28;20450;-80
2024/01/12 09:18:51;;;;;;;93.13;41.90;;;1.80;99.90;;;;;;5015105;28;20453;-80
2024/01/12 09:21:19;;;;;;;94.10;43.73;;;1.80;99.90;;;;;;5014917;28;20570;-79
2024/01/12 09:23:48;;;;;;;87.10;40.83;;;1.90;99.90;;;;;;5016833;28;20439;-79
2024/01/12 09:26:16;;;;;;;87.20;42.03;;;1.90;99.90;;;;;;5014534;28;21020;-79
2024/01/12 09:28:45;;;;;;;90.40;43.70;;;1.90;99.90;;;;;;5014783;28;20463;-79
2024/01/12 09:31:13;;;;;;;91.77;43.37;;;1.90;99.90;;;;;;5015572;28;20485;-78
2024/01/12 09:33:43;;;;;;;83.80;40.83;;;1.90;99.90;;;;;;5014791;28;20450;-79
2024/01/12 09:36:11;;;;;;;82.73;41.20;;;2.00;99.90;;;;;;5014737;28;20487;-78
2024/01/12 09:38:40;;;;;;;85.50;42.40;;;1.90;99.90;;;;;;5014471;28;20818;-79
2024/01/12 09:41:10;;;;;;;87.50;43.10;;;2.00;99.90;;;;;;5014309;28;20474;-78
2024/01/12 09:43:40;;;;;;;89.70;43.67;;;2.00;99.90;;;;;;5017363;28;20504;-79
2024/01/12 09:46:10;;;;;;;93.57;40.87;;;2.00;99.90;;;;;;5020050;28;20811;-79
2024/01/12 09:48:40;;;;;;;95.33;43.10;;;2.00;99.90;;;;;;5019570;28;20446;-79
2024/01/12 09:51:13;;;;;;;79.60;40.50;;;2.00;99.90;;;;;;5024572;28;20479;-79
2024/01/12 09:53:41;;;;;;;84.43;40.63;;;2.10;99.90;;;;;;5022912;28;20451;-79
2024/01/12 09:56:09;;;;;;;79.80;38.57;;;2.10;99.90;;;;;;5023223;28;20454;-79
2024/01/12 09:58:39;;;;;;;77.80;39.33;;;2.10;99.90;;;;;;5026036;28;20448;-79
2024/01/12 10:01:12;;;;;;;67.10;39.20;;;2.10;99.90;;;;;;5032959;28;20586;-80
2024/01/12 10:03:42;;;;;;;68.30;37.50;;;2.10;99.90;;;;;;5032898;28;20458;-79
2024/01/12 10:06:12;;;;;;;61.40;34.00;;;2.20;99.90;;;;;;5031724;28;20477;-79
2024/01/12 10:08:41;;;;;;;64.57;37.10;;;2.20;99.90;;;;;;5031288;28;20807;-79
2024/01/12 10:11:10;;;;;;;57.00;32.87;;;2.20;99.90;;;;;;5030631;28;20482;-78
2024/01/12 10:13:38;;;;;;;58.07;33.70;;;2.30;99.90;;;;;;5030362;28;20447;-78
2024/01/12 10:16:07;;;;;;;59.33;32.83;;;2.30;99.90;;;;;;5028775;28;20455;-79
2024/01/12 10:18:35;;;;;;;53.57;31.33;;;2.30;99.90;;;;;;5029178;28;20447;-78
2024/01/12 10:21:05;;;;;;;53.50;31.57;;;2.30;99.90;;;;;;5027760;28;20504;-78
2024/01/12 10:23:35;;;;;;;53.60;30.50;;;2.40;99.90;;;;;;5026826;28;20517;-79
2024/01/12 10:26:05;;;;;;;49.80;31.20;;;2.40;99.90;;;;;;5026454;28;20464;-78
2024/01/12 10:28:34;;;;;;;47.87;31.17;;;2.40;99.90;;;;;;5025518;28;20494;-78
2024/01/12 10:31:06;;;;;;;47.30;29.70;;;2.40;99.90;;;;;;5025577;28;20479;-78
2024/01/12 10:33:36;;;;;;;43.80;29.30;;;2.40;99.90;;;;;;5025633;28;20497;-78
2024/01/12 10:36:11;;;;;;;45.23;31.30;;;2.40;99.90;;;;;;5024216;28;20451;-78
2024/01/12 10:38:45;;;;;;;47.43;29.03;;;2.50;99.90;;;;;;5023011;28;20493;-79
2024/01/12 10:41:18;;;;;;;39.30;29.50;;;2.50;99.90;;;;;;5026824;28;20505;-79
2024/01/12 10:43:52;;;;;;;48.70;30.67;;;2.50;99.90;;;;;;5024608;28;20454;-79
2024/01/12 10:46:30;;;;;;;40.60;29.90;;;2.60;99.90;;;;;;5024025;28;20550;-78
2024/01/12 10:49:06;;;;;;;44.47;29.13;;;2.60;99.90;;;;;;5023254;28;20513;-79
2024/01/12 10:51:39;;;;;;;45.03;28.27;;;2.60;99.90;;;;;;5025128;28;20475;-79
2024/01/12 10:54:18;;;;;;;43.30;28.90;;;2.60;99.90;;;;;;5024945;28;20416;-78
2024/01/12 10:56:47;;;;;;;42.47;28.70;;;2.60;99.90;;;;;;5022818;28;20467;-78
2024/01/12 10:59:16;;;;;;;43.00;27.67;;;2.60;99.90;;;;;;5021494;28;20444;-78
2024/01/12 11:01:45;;;;;;;41.50;27.57;;;2.60;99.90;;;;;;5024198;28;20478;-79
2024/01/12 11:04:15;;;;;;;44.70;28.93;;;2.70;99.90;;;;;;5027468;28;20450;-79
2024/01/12 11:06:45;;;;;;;44.53;29.50;;;2.70;99.90;;;;;;5028100;28;20478;-79
2024/01/12 11:09:17;;;;;;;47.80;30.20;;;2.70;99.90;;;;;;5027839;28;20870;-79
2024/01/12 11:11:58;;;;;;;46.33;30.07;;;2.70;99.90;;;;;;5021509;28;20486;-80
2024/01/12 11:14:27;;;;;;;45.87;29.53;;;2.70;99.90;;;;;;5020157;28;20463;-79
2024/01/12 11:16:56;;;;;;;42.47;28.60;;;2.70;99.90;;;;;;5020302;28;20459;-78
2024/01/12 11:19:27;;;;;;;47.40;28.03;;;2.70;99.90;;;;;;5018228;28;20457;-78
2024/01/12 11:22:08;;;;;;;46.57;28.10;;;2.70;99.90;;;;;;5017843;28;20444;-79
2024/01/12 11:24:39;;;;;;;39.77;26.87;;;2.70;99.90;;;;;;5021049;28;20444;-77
2024/01/12 11:27:07;;;;;;;39.50;29.03;;;2.70;99.90;;;;;;5019206;28;20464;-77
2024/01/12 11:29:37;;;;;;;39.83;27.93;;;2.70;99.90;;;;;;5018760;28;20464;-79
2024/01/12 11:32:06;;;;;;;37.93;27.50;;;2.80;99.90;;;;;;5017656;28;20443;-77
2024/01/12 11:34:38;;;;;;;38.30;26.30;;;2.80;99.90;;;;;;5018094;28;20986;-79
2024/01/12 11:37:10;;;;;;;38.60;26.33;;;2.80;99.90;;;;;;5016533;28;20436;-77
2024/01/12 11:39:41;;;;;;;43.83;26.37;;;2.80;99.90;;;;;;5017359;28;20527;-79
2024/01/12 11:42:11;;;;;;;41.17;25.40;;;2.90;99.90;;;;;;5019100;28;20459;-79
2024/01/12 11:44:39;;;;;;;39.27;23.80;;;2.90;99.90;;;;;;5017399;28;20451;-77
2024/01/12 11:47:09;;;;;;;36.27;24.03;;;3.00;99.90;;;;;;5018540;28;20467;-80
2024/01/12 11:49:38;;;;;;;31.60;23.93;;;3.00;99.90;;;;;;5018310;28;20490;-77
2024/01/12 11:52:07;;;;;;;35.40;26.70;;;3.00;99.90;;;;;;5016935;28;20446;-78
2024/01/12 11:54:35;;;;;;;43.00;25.90;;;3.00;99.90;;;;;;5020042;28;20551;-79
2024/01/12 11:57:05;;;;;;;38.60;26.93;;;3.10;99.90;;;;;;5025318;28;20866;-80
2024/01/12 11:59:38;;;;;;;36.20;25.00;;;3.10;99.90;;;;;;5023706;28;20535;-80
2024/01/12 12:02:08;;;;;;;36.07;22.93;;;3.10;99.90;;;;;;5025969;28;20440;-80
2024/01/12 12:04:37;;;;;;;34.23;22.73;;;3.10;99.90;;;;;;5024390;28;20459;-79
2024/01/12 12:07:05;;;;;;;37.70;23.33;;;3.20;99.90;;;;;;5022357;28;20470;-80
2024/01/12 12:09:34;;;;;;;33.57;22.73;;;3.10;99.90;;;;;;5025630;28;20436;-79
2024/01/12 12:12:02;;;;;;;41.33;22.47;;;3.20;99.90;;;;;;5024921;28;20467;-79
2024/01/12 12:14:32;;;;;;;32.37;22.33;;;3.20;99.90;;;;;;5025685;28;20456;-79
2024/01/12 12:17:00;;;;;;;36.70;25.27;;;3.20;99.90;;;;;;5025879;28;20511;-79
2024/01/12 12:19:29;;;;;;;29.40;20.33;;;3.20;99.90;;;;;;5024226;28;20482;-79
2024/01/12 12:21:57;;;;;;;36.10;21.53;;;3.20;99.90;;;;;;5024149;28;20447;-79
2024/01/12 12:24:26;;;;;;;34.93;23.90;;;3.20;99.90;;;;;;5025491;28;20444;-79
2024/01/12 12:26:54;;;;;;;37.60;22.80;;;3.20;99.90;;;;;;5020810;28;20459;-79
2024/01/12 12:29:22;;;;;;;64.10;22.10;;;3.20;99.90;;;;;;5022473;28;20964;-78
2024/01/12 12:31:52;;;;;;;33.77;20.63;;;3.30;99.90;;;;;;5023482;28;20832;-79
2024/01/12 12:34:21;;;;;;;33.80;19.93;;;3.30;99.90;;;;;;5024030;28;20483;-79
2024/01/12 12:36:50;;;;;;;29.50;19.53;;;3.30;99.90;;;;;;5023502;28;20435;-79
2024/01/12 12:39:19;;;;;;;32.23;19.70;;;3.30;99.90;;;;;;5024566;28;20535;-80
2024/01/12 12:41:47;;;;;;;36.67;21.30;;;3.30;99.90;;;;;;5018857;28;20471;-79
2024/01/12 12:44:16;;;;;;;34.77;22.07;;;3.30;99.90;;;;;;5022359;28;20522;-79
2024/01/12 12:46:44;;;;;;;34.20;19.23;;;3.30;99.90;;;;;;5023008;28;20463;-78